Time;durP1;ratioP1;P1;durP2;ratioP2;P2;SDS_P1;SDS_P2;PMS_P1;PMS_P2;Temp;Humidity;BMP_temperature;BMP_pressure;BME280_temperature;BME280_humidity;BME280_pressure;Samples;Min_cycle;Max_cycle;Signal;HPM_P1;HPM_P2
2022/12/25 00:00:24;;;;;;;;;7.50;6.50;;;;;;;;5045083;28;61910;-76
2022/12/25 00:02:49;;;;;;;;;9.75;7.25;;;;;;;;5044997;28;61660;-77
2022/12/25 00:05:14;;;;;;;;;8.75;8.00;;;;;;;;5045450;28;61758;-77
2022/12/25 00:07:40;;;;;;;;;16.50;8.25;;;;;;;;5044431;28;61813;-76
2022/12/25 00:10:05;;;;;;;;;6.75;5.50;;;;;;;;5052761;28;61973;-77
2022/12/25 00:12:31;;;;;;;;;9.00;8.00;;;;;;;;5045132;28;61943;-77
2022/12/25 00:14:56;;;;;;;;;6.00;5.00;;;;;;;;5045271;28;61750;-76
2022/12/25 00:17:21;;;;;;;;;11.50;5.00;;;;;;;;5043925;28;61931;-77
2022/12/25 00:19:46;;;;;;;;;8.00;6.00;;;;;;;;5043115;28;61788;-77
2022/12/25 00:22:12;;;;;;;;;8.75;7.25;;;;;;;;5044983;28;61616;-77
2022/12/25 00:24:37;;;;;;;;;10.50;9.00;;;;;;;;5045089;28;61804;-76
2022/12/25 00:27:02;;;;;;;;;6.50;5.25;;;;;;;;5042790;28;63742;-76
2022/12/25 00:29:27;;;;;;;;;10.75;6.50;;;;;;;;5044695;28;61793;-76
2022/12/25 00:31:53;;;;;;;;;6.00;5.00;;;;;;;;5045021;28;61785;-77
2022/12/25 00:34:18;;;;;;;;;12.50;7.00;;;;;;;;5044823;28;61869;-77
2022/12/25 00:36:43;;;;;;;;;6.00;5.25;;;;;;;;5042687;28;63575;-77
2022/12/25 00:39:09;;;;;;;;;10.00;6.00;;;;;;;;5044693;28;61841;-77
2022/12/25 00:44:25;;;;;;;;;5.00;5.00;;;;;;;;5022446;28;61984;-77
2022/12/25 00:46:50;;;;;;;;;5.25;5.25;;;;;;;;5021320;28;61804;-77
2022/12/25 00:49:16;;;;;;;;;3.50;3.25;;;;;;;;5005079;28;61944;-77
2022/12/25 00:51:41;;;;;;;;;8.75;5.00;;;;;;;;5022061;28;61803;-77
2022/12/25 00:54:06;;;;;;;;;5.00;3.50;;;;;;;;5005363;28;61930;-76
2022/12/25 00:56:32;;;;;;;;;4.25;4.00;;;;;;;;5021209;28;61804;-77
2022/12/25 00:58:57;;;;;;;;;3.00;3.00;;;;;;;;5021917;28;61983;-77
2022/12/25 01:01:23;;;;;;;;;6.25;2.75;;;;;;;;5005348;28;62146;-77
2022/12/25 01:03:48;;;;;;;;;3.00;3.00;;;;;;;;5005345;28;61945;-77
2022/12/25 01:06:13;;;;;;;;;3.75;3.00;;;;;;;;5021050;28;61993;-77
2022/12/25 01:10:21;;;;;;;;;4.00;4.00;;;;;;;;5021585;28;61913;-77
2022/12/25 01:11:25;;;;;;;;;4.00;4.00;;;;;;;;5021519;28;61962;-77
2022/12/25 01:13:50;;;;;;;;;3.50;3.50;;;;;;;;5021912;28;62359;-77
2022/12/25 01:16:16;;;;;;;;;6.00;3.25;;;;;;;;5020921;28;62758;-77
2022/12/25 01:18:43;;;;;;;;;2.50;2.50;;;;;;;;5021114;28;61692;-77
2022/12/25 01:21:09;;;;;;;;;6.25;3.00;;;;;;;;5032069;28;62029;-77
2022/12/25 01:23:34;;;;;;;;;2.25;2.00;;;;;;;;5044015;28;61800;-77
2022/12/25 01:26:06;;;;;;;;;4.00;2.25;;;;;;;;5043287;28;62878;-77
2022/12/25 01:28:31;;;;;;;;;3.00;3.00;;;;;;;;5043809;28;61875;-76
2022/12/25 01:30:56;;;;;;;;;1.25;1.25;;;;;;;;5043708;28;61723;-77
2022/12/25 01:33:21;;;;;;;;;4.75;2.75;;;;;;;;5044058;28;61826;-77
2022/12/25 01:35:46;;;;;;;;;3.75;3.75;;;;;;;;5043256;28;61714;-76
2022/12/25 01:38:12;;;;;;;;;4.00;3.00;;;;;;;;5043796;28;61888;-77
2022/12/25 01:40:37;;;;;;;;;2.00;2.00;;;;;;;;5043694;28;61899;-77
2022/12/25 01:43:02;;;;;;;;;6.50;4.25;;;;;;;;5042453;28;62127;-77
2022/12/25 01:45:30;;;;;;;;;5.50;4.25;;;;;;;;5043148;28;61938;-76
2022/12/25 01:47:56;;;;;;;;;7.00;5.50;;;;;;;;5042063;28;61843;-77
2022/12/25 01:50:22;;;;;;;;;6.50;2.00;;;;;;;;5043355;28;61877;-77
2022/12/25 01:52:48;;;;;;;;;2.00;1.50;;;;;;;;5043524;28;62122;-76
2022/12/25 01:55:13;;;;;;;;;2.25;2.25;;;;;;;;5041073;28;63781;-77
2022/12/25 01:57:39;;;;;;;;;2.00;2.00;;;;;;;;5043221;28;61686;-77
2022/12/25 02:00:05;;;;;;;;;2.75;2.00;;;;;;;;5043438;28;61874;-77
2022/12/25 02:02:30;;;;;;;;;2.50;2.50;;;;;;;;5043655;28;62116;-77
2022/12/25 02:05:02;;;;;;;;;3.25;2.25;;;;;;;;5042532;28;61718;-77
2022/12/25 02:07:28;;;;;;;;;2.25;1.25;;;;;;;;5043031;28;61710;-77
2022/12/25 02:09:54;;;;;;;;;1.50;1.00;;;;;;;;5043031;28;61830;-77
2022/12/25 02:12:25;;;;;;;;;3.00;1.00;;;;;;;;5042116;28;61826;-76
2022/12/25 02:14:51;;;;;;;;;4.25;2.25;;;;;;;;5042540;28;62861;-77
2022/12/25 02:17:16;;;;;;;;;1.25;1.00;;;;;;;;5043111;28;61934;-77
2022/12/25 02:19:56;;;;;;;;;2.25;1.75;;;;;;;;5041452;28;61962;-76
2022/12/25 02:22:32;;;;;;;;;2.00;2.00;;;;;;;;5043018;28;61726;-77
2022/12/25 02:25:12;;;;;;;;;1.75;1.75;;;;;;;;5042470;28;61786;-76
2022/12/25 02:27:56;;;;;;;;;2.00;1.00;;;;;;;;5042976;28;61718;-77
2022/12/25 02:30:21;;;;;;;;;2.00;1.00;;;;;;;;5043025;28;61735;-77
2022/12/25 02:34:01;;;;;;;;;2.00;2.00;;;;;;;;5041781;28;61810;-77
2022/12/25 02:35:50;;;;;;;;;1.00;1.00;;;;;;;;5042339;28;61669;-76
2022/12/25 02:38:19;;;;;;;;;2.00;1.50;;;;;;;;5042587;28;62051;-77
2022/12/25 02:40:50;;;;;;;;;3.00;3.00;;;;;;;;5042726;28;61873;-77
2022/12/25 03:08:49;;;;;;;;;2.00;2.00;;;;;;;;5045301;28;61675;-77
2022/12/25 03:11:29;;;;;;;;;6.50;2.00;;;;;;;;5044577;28;61819;-77
2022/12/25 03:16:49;;;;;;;;;4.00;3.00;;;;;;;;5046005;28;61674;-77
2022/12/25 03:16:52;;;;;;;;;2.00;2.00;;;;;;;;5046114;28;61757;-77
2022/12/25 03:27:33;;;;;;;;;1.00;1.00;;;;;;;;5046021;28;61714;-77
2022/12/25 03:32:57;;;;;;;;;4.50;2.00;;;;;;;;5045846;28;61900;-77
2022/12/25 03:35:42;;;;;;;;;3.00;2.25;;;;;;;;5045492;28;61888;-77
2022/12/25 04:36:13;;;;;;;;;8.25;6.00;;;;;;;;5044275;28;62244;-77
2022/12/25 04:38:39;;;;;;;;;7.00;7.00;;;;;;;;5044698;28;61838;-77
2022/12/25 04:41:05;;;;;;;;;8.00;6.75;;;;;;;;5044690;28;61825;-77
2022/12/25 04:43:30;;;;;;;;;15.50;11.00;;;;;;;;5044845;28;61965;-77
2022/12/25 04:45:57;;;;;;;;;14.25;7.50;;;;;;;;5044062;28;62633;-77
2022/12/25 04:48:22;;;;;;;;;11.00;7.25;;;;;;;;5044027;28;61888;-77
2022/12/25 04:50:48;;;;;;;;;12.25;10.75;;;;;;;;5044367;28;61741;-77
2022/12/25 04:53:14;;;;;;;;;14.00;10.75;;;;;;;;5043438;28;61723;-77
2022/12/25 04:55:39;;;;;;;;;13.25;8.75;;;;;;;;5043935;28;62817;-76
2022/12/25 04:58:04;;;;;;;;;19.25;10.25;;;;;;;;5042620;28;61840;-77
2022/12/25 05:00:29;;;;;;;;;9.50;8.25;;;;;;;;5044574;28;61724;-77
2022/12/25 05:02:56;;;;;;;;;12.00;8.75;;;;;;;;5044463;28;61772;-76
2022/12/25 05:05:21;;;;;;;;;11.75;9.25;;;;;;;;5043496;28;61818;-77
2022/12/25 05:07:46;;;;;;;;;10.50;9.25;;;;;;;;5044174;28;61699;-77
2022/12/25 05:10:12;;;;;;;;;12.50;10.75;;;;;;;;5043894;28;61731;-77
2022/12/25 05:12:37;;;;;;;;;18.50;14.25;;;;;;;;5044541;28;61840;-77
2022/12/25 05:15:02;;;;;;;;;20.50;13.00;;;;;;;;5043601;28;63207;-77
2022/12/25 05:17:27;;;;;;;;;19.50;13.75;;;;;;;;5043642;28;61816;-77
2022/12/25 05:19:53;;;;;;;;;15.50;11.25;;;;;;;;5043871;28;61918;-77
2022/12/25 05:22:18;;;;;;;;;15.25;13.00;;;;;;;;5043941;28;61800;-76
2022/12/25 05:24:43;;;;;;;;;13.25;10.50;;;;;;;;5042011;28;63506;-77
2022/12/25 05:27:08;;;;;;;;;13.00;12.75;;;;;;;;5044055;28;61923;-76
2022/12/25 05:29:34;;;;;;;;;12.00;12.00;;;;;;;;5042913;28;62034;-77
2022/12/25 05:31:59;;;;;;;;;14.25;10.25;;;;;;;;5043886;28;61730;-77
2022/12/25 05:34:24;;;;;;;;;12.75;11.75;;;;;;;;5043095;28;61808;-77
2022/12/25 05:36:50;;;;;;;;;11.50;10.00;;;;;;;;5043860;28;61919;-77
2022/12/25 05:39:15;;;;;;;;;24.75;12.25;;;;;;;;5043875;28;61783;-77
2022/12/25 05:41:40;;;;;;;;;18.75;11.00;;;;;;;;5043982;28;61852;-76
2022/12/25 05:44:05;;;;;;;;;16.25;11.75;;;;;;;;5041528;28;64189;-77
2022/12/25 05:46:31;;;;;;;;;17.00;10.75;;;;;;;;5043572;28;61767;-77
2022/12/25 05:48:56;;;;;;;;;15.00;13.25;;;;;;;;5043305;28;61753;-77
2022/12/25 05:51:21;;;;;;;;;16.25;13.25;;;;;;;;5042410;28;61781;-77
2022/12/25 05:53:47;;;;;;;;;11.50;8.25;;;;;;;;5043199;28;62625;-76
2022/12/25 05:56:12;;;;;;;;;18.75;13.25;;;;;;;;5043444;28;61766;-77
2022/12/25 05:58:38;;;;;;;;;18.75;12.00;;;;;;;;5042157;28;61813;-77
2022/12/25 06:01:09;;;;;;;;;17.25;11.75;;;;;;;;5043426;28;61970;-76
2022/12/25 06:03:34;;;;;;;;;10.00;9.25;;;;;;;;5042752;28;61772;-76
2022/12/25 06:06:01;;;;;;;;;12.00;9.50;;;;;;;;5043291;28;61805;-77
2022/12/25 06:08:26;;;;;;;;;14.75;11.50;;;;;;;;5043091;28;61885;-77
2022/12/25 06:10:51;;;;;;;;;12.00;9.25;;;;;;;;5043289;28;61900;-76
2022/12/25 06:13:17;;;;;;;;;14.75;11.25;;;;;;;;5041459;28;63669;-76
2022/12/25 06:15:42;;;;;;;;;11.00;8.25;;;;;;;;5041649;28;61779;-76
2022/12/25 06:18:07;;;;;;;;;14.00;13.00;;;;;;;;5042993;28;61967;-77
2022/12/25 06:20:33;;;;;;;;;12.75;9.00;;;;;;;;5042803;28;62011;-76
2022/12/25 06:22:59;;;;;;;;;16.00;11.00;;;;;;;;5042287;28;61725;-76
2022/12/25 06:25:24;;;;;;;;;16.50;9.75;;;;;;;;5043030;28;62178;-77
2022/12/25 06:27:49;;;;;;;;;11.50;10.75;;;;;;;;5043040;28;61773;-77
2022/12/25 06:30:15;;;;;;;;;12.00;7.75;;;;;;;;5043168;28;61772;-77
2022/12/25 06:32:40;;;;;;;;;8.25;8.25;;;;;;;;5042311;28;61833;-77
2022/12/25 06:35:06;;;;;;;;;22.00;13.00;;;;;;;;5041513;28;61774;-77
2022/12/25 06:37:31;;;;;;;;;14.75;12.00;;;;;;;;5042677;28;61802;-77
2022/12/25 06:39:56;;;;;;;;;10.75;10.00;;;;;;;;5042969;28;61905;-77
2022/12/25 06:42:21;;;;;;;;;18.00;12.25;;;;;;;;5042234;28;62008;-76
2022/12/25 06:44:47;;;;;;;;;16.75;13.00;;;;;;;;5041221;28;61819;-77
2022/12/25 06:47:12;;;;;;;;;12.00;11.00;;;;;;;;5043011;28;61853;-77
2022/12/25 06:49:37;;;;;;;;;11.50;9.75;;;;;;;;5041115;28;62031;-77
2022/12/25 06:52:02;;;;;;;;;14.75;10.00;;;;;;;;5042017;28;62651;-77
2022/12/25 06:54:28;;;;;;;;;16.75;10.75;;;;;;;;5041308;28;61800;-77
2022/12/25 06:56:53;;;;;;;;;8.50;7.50;;;;;;;;5042643;28;61897;-77
2022/12/25 06:59:18;;;;;;;;;18.50;13.00;;;;;;;;5042710;28;61726;-77
2022/12/25 07:01:48;;;;;;;;;14.25;12.75;;;;;;;;5041925;28;62360;-76
2022/12/25 07:04:24;;;;;;;;;15.00;10.50;;;;;;;;5042429;28;61965;-77
2022/12/25 07:06:49;;;;;;;;;20.75;16.50;;;;;;;;5041165;28;61827;-77
2022/12/25 07:09:14;;;;;;;;;17.50;14.50;;;;;;;;5042625;28;61696;-77
2022/12/25 07:11:40;;;;;;;;;15.50;12.50;;;;;;;;5040432;28;63968;-77
2022/12/25 07:14:05;;;;;;;;;14.00;13.00;;;;;;;;5042141;28;61754;-77
2022/12/25 07:16:30;;;;;;;;;21.00;11.50;;;;;;;;5042371;28;61658;-76
2022/12/25 07:18:58;;;;;;;;;14.00;12.00;;;;;;;;5040254;28;62029;-76
2022/12/25 07:21:23;;;;;;;;;18.25;11.50;;;;;;;;5041474;28;61839;-77
2022/12/25 07:23:48;;;;;;;;;12.00;10.50;;;;;;;;5041636;28;61832;-76
2022/12/25 07:26:14;;;;;;;;;11.25;9.25;;;;;;;;5040883;28;61801;-77
2022/12/25 07:28:39;;;;;;;;;20.00;13.00;;;;;;;;5041804;28;61703;-77
2022/12/25 07:31:08;;;;;;;;;14.50;13.25;;;;;;;;5041442;28;62996;-77
2022/12/25 07:33:33;;;;;;;;;12.75;6.75;;;;;;;;5041685;28;61821;-77
2022/12/25 07:35:59;;;;;;;;;13.00;11.25;;;;;;;;5042193;28;61845;-77
2022/12/25 07:38:24;;;;;;;;;13.25;12.00;;;;;;;;5042266;28;61812;-77
2022/12/25 07:40:49;;;;;;;;;15.75;10.75;;;;;;;;5041178;28;62670;-77
2022/12/25 07:43:15;;;;;;;;;12.00;8.75;;;;;;;;5042243;28;61755;-77
2022/12/25 07:45:40;;;;;;;;;9.00;8.50;;;;;;;;5041974;28;61741;-77
2022/12/25 07:48:06;;;;;;;;;15.75;9.50;;;;;;;;5042217;28;61823;-77
2022/12/25 07:50:31;;;;;;;;;13.00;10.25;;;;;;;;5039674;28;65082;-77
2022/12/25 07:52:56;;;;;;;;;11.00;9.50;;;;;;;;5042886;28;61980;-77
2022/12/25 07:55:21;;;;;;;;;12.25;11.00;;;;;;;;5045474;28;61759;-76
2022/12/25 07:57:47;;;;;;;;;32.25;19.00;;;;;;;;5045206;28;61824;-76
2022/12/25 08:00:12;;;;;;;;;15.00;8.75;;;;;;;;5044781;28;61736;-76
2022/12/25 08:02:38;;;;;;;;;11.25;8.00;;;;;;;;5043923;28;61813;-77
2022/12/25 08:05:03;;;;;;;;;10.25;9.25;;;;;;;;5045119;28;62333;-77
2022/12/25 08:07:28;;;;;;;;;12.75;10.25;;;;;;;;5045558;28;61777;-77
2022/12/25 08:09:54;;;;;;;;;9.25;7.50;;;;;;;;5044125;28;62777;-76
2022/12/25 08:12:19;;;;;;;;;40.50;34.50;;;;;;;;5043762;28;61898;-77
2022/12/25 08:14:44;;;;;;;;;10.25;7.00;;;;;;;;5043810;28;61796;-77
2022/12/25 08:17:09;;;;;;;;;16.25;16.25;;;;;;;;5043933;28;62000;-77
2022/12/25 08:19:35;;;;;;;;;16.25;6.00;;;;;;;;5043941;28;62785;-77
2022/12/25 08:22:00;;;;;;;;;12.75;8.00;;;;;;;;5043583;28;61737;-77
2022/12/25 08:24:25;;;;;;;;;8.75;5.50;;;;;;;;5044594;28;61886;-77
2022/12/25 08:26:51;;;;;;;;;8.25;6.50;;;;;;;;5045052;28;61987;-77
2022/12/25 08:29:16;;;;;;;;;6.00;6.00;;;;;;;;5044299;28;61789;-77
2022/12/25 08:31:42;;;;;;;;;8.00;5.75;;;;;;;;5044783;28;61716;-77
2022/12/25 08:34:08;;;;;;;;;8.50;8.50;;;;;;;;5044693;28;61724;-77
2022/12/25 08:36:33;;;;;;;;;6.75;5.00;;;;;;;;5044987;28;61766;-77
2022/12/25 08:38:58;;;;;;;;;6.25;6.25;;;;;;;;5043780;28;63154;-76
2022/12/25 08:41:24;;;;;;;;;9.50;7.00;;;;;;;;5043377;28;61710;-77
2022/12/25 08:43:49;;;;;;;;;7.75;7.75;;;;;;;;5044656;28;61671;-77
2022/12/25 08:46:14;;;;;;;;;7.00;5.75;;;;;;;;5044846;28;61727;-77
2022/12/25 08:48:44;;;;;;;;;8.00;7.25;;;;;;;;5042193;28;64856;-77
2022/12/25 08:51:13;;;;;;;;;8.75;7.50;;;;;;;;5043061;28;61957;-77
2022/12/25 08:53:39;;;;;;;;;13.00;8.00;;;;;;;;5042933;28;61988;-77
2022/12/25 08:56:04;;;;;;;;;7.25;5.00;;;;;;;;5044706;28;62061;-77
2022/12/25 08:58:30;;;;;;;;;11.75;8.50;;;;;;;;5042400;28;63746;-77
2022/12/25 09:00:55;;;;;;;;;9.50;6.50;;;;;;;;5044169;28;62041;-77
2022/12/25 09:03:21;;;;;;;;;6.25;6.25;;;;;;;;5044289;28;61883;-77
2022/12/25 09:05:46;;;;;;;;;6.75;6.00;;;;;;;;5044349;28;61748;-77
2022/12/25 09:08:12;;;;;;;;;13.25;6.50;;;;;;;;5042166;28;63442;-77
2022/12/25 09:10:37;;;;;;;;;7.00;5.25;;;;;;;;5056678;28;61971;-77
2022/12/25 09:13:03;;;;;;;;;6.00;6.00;;;;;;;;5044051;28;62114;-77
2022/12/25 09:15:28;;;;;;;;;6.25;6.25;;;;;;;;5043011;28;61770;-77
2022/12/25 09:17:54;;;;;;;;;6.00;6.00;;;;;;;;5043395;28;61889;-77
2022/12/25 09:20:19;;;;;;;;;13.25;6.50;;;;;;;;5042361;28;61962;-77
2022/12/25 09:22:44;;;;;;;;;5.75;5.75;;;;;;;;5043552;28;61845;-77
2022/12/25 09:25:10;;;;;;;;;11.00;6.00;;;;;;;;5044440;28;61689;-77
2022/12/25 09:27:35;;;;;;;;;12.00;10.25;;;;;;;;5043129;28;61655;-77
2022/12/25 09:30:00;;;;;;;;;10.25;4.25;;;;;;;;5043828;28;61946;-77
2022/12/25 09:32:25;;;;;;;;;7.25;5.00;;;;;;;;5042694;28;61797;-77
2022/12/25 09:34:51;;;;;;;;;6.25;6.25;;;;;;;;5043900;28;61761;-77
2022/12/25 09:37:16;;;;;;;;;10.75;8.50;;;;;;;;5042973;28;61831;-77
2022/12/25 09:39:41;;;;;;;;;7.00;5.50;;;;;;;;5042411;28;61852;-77
2022/12/25 09:42:12;;;;;;;;;10.50;5.25;;;;;;;;5043729;28;61769;-77
2022/12/25 09:44:59;;;;;;;;;10.00;10.00;;;;;;;;5044022;28;61769;-77
2022/12/25 09:47:25;;;;;;;;;8.00;6.50;;;;;;;;5043131;28;62652;-76
2022/12/25 09:50:00;;;;;;;;;9.25;8.25;;;;;;;;5041723;28;61924;-77
2022/12/25 09:52:29;;;;;;;;;6.25;6.25;;;;;;;;5042089;28;61754;-77
2022/12/25 09:55:11;;;;;;;;;7.00;5.00;;;;;;;;5043507;28;61615;-77
2022/12/25 09:57:37;;;;;;;;;7.00;4.50;;;;;;;;5042782;28;62079;-77
2022/12/25 10:00:02;;;;;;;;;7.25;7.25;;;;;;;;5043192;28;62059;-77
2022/12/25 10:02:39;;;;;;;;;7.25;6.00;;;;;;;;5043718;28;61698;-77
2022/12/25 10:05:10;;;;;;;;;4.00;4.00;;;;;;;;5043516;28;61910;-77
2022/12/25 10:07:54;;;;;;;;;6.50;6.50;;;;;;;;5042670;28;61754;-77
2022/12/25 10:10:19;;;;;;;;;6.00;6.00;;;;;;;;5043053;28;62070;-77
2022/12/25 10:12:48;;;;;;;;;9.75;5.00;;;;;;;;5041921;28;61904;-77
2022/12/25 10:15:35;;;;;;;;;7.75;7.25;;;;;;;;5042814;28;61632;-77
2022/12/25 10:18:12;;;;;;;;;8.00;6.75;;;;;;;;5042560;28;62887;-77
2022/12/25 10:20:40;;;;;;;;;9.00;5.00;;;;;;;;5042581;28;61812;-77
2022/12/25 10:23:11;;;;;;;;;8.50;7.00;;;;;;;;5042742;28;61829;-77
2022/12/25 10:25:37;;;;;;;;;3.75;3.00;;;;;;;;5043291;28;61952;-77
2022/12/25 10:28:08;;;;;;;;;5.75;3.00;;;;;;;;5041113;28;64139;-77
2022/12/25 10:30:33;;;;;;;;;5.00;4.75;;;;;;;;5043295;28;61701;-77
2022/12/25 10:32:59;;;;;;;;;5.75;4.50;;;;;;;;5042764;28;61798;-77
2022/12/25 10:35:26;;;;;;;;;6.50;4.75;;;;;;;;5041572;28;62048;-77
2022/12/25 10:38:04;;;;;;;;;3.25;3.00;;;;;;;;5041107;28;64006;-77
2022/12/25 10:40:35;;;;;;;;;5.75;3.75;;;;;;;;5042774;28;61944;-77
2022/12/25 10:43:10;;;;;;;;;9.00;7.50;;;;;;;;5042913;28;62092;-77
2022/12/25 10:45:46;;;;;;;;;5.50;4.25;;;;;;;;5043079;28;62082;-77
2022/12/25 10:48:17;;;;;;;;;5.00;4.50;;;;;;;;5041943;28;61822;-77
2022/12/25 10:50:42;;;;;;;;;6.50;5.00;;;;;;;;5042014;28;61687;-77
2022/12/25 10:53:19;;;;;;;;;6.25;5.00;;;;;;;;5042752;28;61738;-77
2022/12/25 10:55:54;;;;;;;;;3.00;3.00;;;;;;;;5042850;28;61699;-76
2022/12/25 10:58:20;;;;;;;;;7.25;4.00;;;;;;;;5041798;28;61726;-77
2022/12/25 11:00:51;;;;;;;;;6.25;3.50;;;;;;;;5041150;28;61872;-77
2022/12/25 11:03:21;;;;;;;;;3.00;3.00;;;;;;;;5042705;28;61933;-77
2022/12/25 11:05:48;;;;;;;;;5.50;4.00;;;;;;;;5042392;28;61806;-77
2022/12/25 11:08:18;;;;;;;;;5.50;5.50;;;;;;;;5041312;28;61859;-77
2022/12/25 11:10:50;;;;;;;;;7.25;6.00;;;;;;;;5042342;28;61679;-77
2022/12/25 11:13:17;;;;;;;;;7.00;4.75;;;;;;;;5041152;28;61821;-77
2022/12/25 11:15:47;;;;;;;;;7.75;6.75;;;;;;;;5041157;28;61852;-77
2022/12/25 11:18:20;;;;;;;;;5.75;4.00;;;;;;;;5040148;28;63844;-77
2022/12/25 11:20:48;;;;;;;;;6.50;4.50;;;;;;;;5040545;28;62027;-77
2022/12/25 11:23:16;;;;;;;;;3.00;3.00;;;;;;;;5040874;28;62156;-77
2022/12/25 11:25:42;;;;;;;;;4.50;4.00;;;;;;;;5042566;28;62069;-77
2022/12/25 11:28:09;;;;;;;;;3.25;3.25;;;;;;;;5044324;28;62675;-77
2022/12/25 11:30:35;;;;;;;;;6.75;5.25;;;;;;;;5044655;28;61742;-77
2022/12/25 11:33:03;;;;;;;;;5.00;4.00;;;;;;;;5045433;28;61811;-77
2022/12/25 11:35:31;;;;;;;;;5.25;1.75;;;;;;;;5045676;28;61828;-77
2022/12/25 11:37:56;;;;;;;;;5.00;4.00;;;;;;;;5045205;28;62518;-77
2022/12/25 11:40:41;;;;;;;;;4.50;3.00;;;;;;;;5044104;28;61761;-77
2022/12/25 11:43:13;;;;;;;;;3.75;2.75;;;;;;;;5045206;28;61652;-77
2022/12/25 11:45:45;;;;;;;;;4.00;4.00;;;;;;;;5045909;28;62144;-77
2022/12/25 11:48:13;;;;;;;;;5.25;3.75;;;;;;;;5044621;28;62025;-77
2022/12/25 11:50:45;;;;;;;;;4.00;3.25;;;;;;;;5044924;28;61901;-77
2022/12/25 11:53:33;;;;;;;;;3.50;3.00;;;;;;;;5045493;28;61784;-77
2022/12/25 11:56:01;;;;;;;;;5.25;4.00;;;;;;;;5045805;28;61881;-77
2022/12/25 11:58:30;;;;;;;;;7.00;3.75;;;;;;;;5043198;28;63656;-77
2022/12/25 12:00:57;;;;;;;;;4.00;4.00;;;;;;;;5043930;28;62172;-77
2022/12/25 12:03:49;;;;;;;;;5.75;5.75;;;;;;;;5045130;28;61918;-77
2022/12/25 12:06:33;;;;;;;;;7.75;4.00;;;;;;;;5045104;28;61707;-77
2022/12/25 12:09:25;;;;;;;;;3.50;3.50;;;;;;;;5044489;28;61842;-77
2022/12/25 12:12:00;;;;;;;;;3.75;2.75;;;;;;;;5043434;28;61891;-77
2022/12/25 12:14:42;;;;;;;;;5.00;3.00;;;;;;;;5045127;28;61823;-77
2022/12/25 12:17:12;;;;;;;;;4.00;4.00;;;;;;;;5045145;28;62014;-77
2022/12/25 12:19:37;;;;;;;;;3.00;2.00;;;;;;;;5042858;28;63989;-76
2022/12/25 12:22:03;;;;;;;;;2.00;2.00;;;;;;;;5044871;28;61887;-77
2022/12/25 12:24:37;;;;;;;;;9.75;6.25;;;;;;;;5044927;28;62274;-77
2022/12/25 12:27:05;;;;;;;;;3.50;3.50;;;;;;;;5045207;28;61966;-77
2022/12/25 12:29:33;;;;;;;;;3.75;3.75;;;;;;;;5044276;28;61955;-77
2022/12/25 12:32:02;;;;;;;;;5.00;3.75;;;;;;;;5044672;28;61751;-76
2022/12/25 12:34:30;;;;;;;;;4.00;3.75;;;;;;;;5044617;28;62083;-77
2022/12/25 12:37:19;;;;;;;;;3.75;2.50;;;;;;;;5043565;28;61880;-77
2022/12/25 12:39:49;;;;;;;;;3.50;3.50;;;;;;;;5034606;28;63811;-77
2022/12/25 12:42:16;;;;;;;;;5.25;3.00;;;;;;;;5043157;28;62057;-77
2022/12/25 12:44:43;;;;;;;;;5.00;3.25;;;;;;;;5044800;28;61769;-77
2022/12/25 12:47:25;;;;;;;;;7.00;5.00;;;;;;;;5044557;28;61729;-77
2022/12/25 12:49:56;;;;;;;;;4.00;2.00;;;;;;;;5043931;28;62731;-77
2022/12/25 12:52:23;;;;;;;;;3.75;3.75;;;;;;;;5042985;28;61647;-77
2022/12/25 12:54:59;;;;;;;;;2.75;2.50;;;;;;;;5044623;28;61743;-76
2022/12/25 12:57:28;;;;;;;;;3.00;3.00;;;;;;;;5044595;28;61879;-77
2022/12/25 12:59:55;;;;;;;;;5.00;3.50;;;;;;;;5043906;28;62757;-76
2022/12/25 13:02:23;;;;;;;;;6.00;6.00;;;;;;;;5042925;28;61757;-77
2022/12/25 13:04:56;;;;;;;;;3.25;3.25;;;;;;;;5044472;28;61854;-76
2022/12/25 13:07:27;;;;;;;;;7.00;4.25;;;;;;;;5044536;28;61904;-77
2022/12/25 13:10:02;;;;;;;;;4.00;3.00;;;;;;;;5043738;28;62845;-77
2022/12/25 13:12:27;;;;;;;;;4.25;3.75;;;;;;;;5044093;28;61757;-77
2022/12/25 13:14:52;;;;;;;;;5.25;3.00;;;;;;;;5042707;28;62444;-77
2022/12/25 13:17:23;;;;;;;;;5.50;4.00;;;;;;;;5044470;28;62208;-77
2022/12/25 13:20:11;;;;;;;;;8.00;4.25;;;;;;;;5042023;28;64794;-77
2022/12/25 13:22:37;;;;;;;;;5.75;4.00;;;;;;;;5043755;28;61815;-77
2022/12/25 13:25:04;;;;;;;;;6.00;3.50;;;;;;;;5043976;28;61864;-77
2022/12/25 13:27:31;;;;;;;;;5.00;5.00;;;;;;;;5044173;28;61850;-77
2022/12/25 13:29:57;;;;;;;;;13.50;11.00;;;;;;;;5041963;28;64621;-76
2022/12/25 13:32:25;;;;;;;;;10.50;7.50;;;;;;;;5043662;28;61809;-77
2022/12/25 13:34:51;;;;;;;;;4.00;4.00;;;;;;;;5043928;28;61700;-77
2022/12/25 13:37:18;;;;;;;;;4.25;4.25;;;;;;;;5042692;28;61998;-77
2022/12/25 13:39:48;;;;;;;;;4.00;3.50;;;;;;;;5041886;28;64956;-76
2022/12/25 13:42:16;;;;;;;;;8.25;6.75;;;;;;;;5043593;28;61704;-77
2022/12/25 13:44:43;;;;;;;;;7.00;6.75;;;;;;;;5042188;28;62078;-77
2022/12/25 13:47:16;;;;;;;;;3.75;3.75;;;;;;;;5043905;28;61822;-77
2022/12/25 13:49:41;;;;;;;;;3.00;3.00;;;;;;;;5041658;28;61813;-77
2022/12/25 13:52:12;;;;;;;;;5.25;5.00;;;;;;;;5042047;28;61830;-77
2022/12/25 13:54:37;;;;;;;;;3.50;3.50;;;;;;;;5043721;28;61787;-77
2022/12/25 13:57:06;;;;;;;;;8.00;7.00;;;;;;;;5043606;28;61972;-77
2022/12/25 13:59:32;;;;;;;;;1.75;1.25;;;;;;;;5042719;28;64757;-77
2022/12/25 14:01:58;;;;;;;;;7.00;4.00;;;;;;;;5043387;28;61970;-77
2022/12/25 14:04:23;;;;;;;;;4.00;3.75;;;;;;;;5043480;28;61924;-77
2022/12/25 14:06:50;;;;;;;;;4.75;4.00;;;;;;;;5042165;28;62006;-77
2022/12/25 14:09:15;;;;;;;;;6.50;6.00;;;;;;;;5042666;28;63120;-77
2022/12/25 14:11:44;;;;;;;;;7.00;5.00;;;;;;;;5043091;28;61904;-77
2022/12/25 14:14:28;;;;;;;;;6.00;5.00;;;;;;;;5042940;28;61777;-77
2022/12/25 14:16:55;;;;;;;;;9.25;7.75;;;;;;;;5041730;28;61735;-77
2022/12/25 14:19:31;;;;;;;;;5.00;4.00;;;;;;;;5041048;28;65044;-77
2022/12/25 14:21:56;;;;;;;;;7.25;5.00;;;;;;;;5043275;28;61863;-77
2022/12/25 14:24:24;;;;;;;;;11.25;5.00;;;;;;;;5042954;28;61813;-77
2022/12/25 14:26:55;;;;;;;;;6.50;4.00;;;;;;;;5041837;28;61879;-77
2022/12/25 14:29:21;;;;;;;;;8.75;6.00;;;;;;;;5042593;28;62840;-77
2022/12/25 14:31:46;;;;;;;;;8.00;5.50;;;;;;;;5041548;28;61742;-77
2022/12/25 14:34:20;;;;;;;;;7.00;7.00;;;;;;;;5041647;28;61733;-77
2022/12/25 14:36:46;;;;;;;;;6.00;5.00;;;;;;;;5043098;28;61814;-76
2022/12/25 14:39:31;;;;;;;;;7.00;5.75;;;;;;;;5042279;28;61880;-77
2022/12/25 14:41:56;;;;;;;;;4.25;4.00;;;;;;;;5042837;28;61774;-77
2022/12/25 14:44:37;;;;;;;;;10.00;5.00;;;;;;;;5041602;28;61895;-77
2022/12/25 14:47:04;;;;;;;;;2.75;2.75;;;;;;;;5043118;28;61755;-77
2022/12/25 14:49:30;;;;;;;;;6.00;4.00;;;;;;;;5041876;28;61835;-77
2022/12/25 14:51:55;;;;;;;;;6.75;6.75;;;;;;;;5042512;28;61801;-77
2022/12/25 14:54:21;;;;;;;;;5.75;4.50;;;;;;;;5041162;28;61754;-77
2022/12/25 14:56:50;;;;;;;;;3.75;3.00;;;;;;;;5042744;28;62095;-77
2022/12/25 14:59:17;;;;;;;;;4.00;4.00;;;;;;;;5040670;28;64051;-77
2022/12/25 15:01:43;;;;;;;;;6.25;4.00;;;;;;;;5042243;28;61687;-77
2022/12/25 15:04:08;;;;;;;;;4.75;4.75;;;;;;;;5041106;28;61868;-77
2022/12/25 15:06:34;;;;;;;;;6.00;5.00;;;;;;;;5043011;28;61899;-77
2022/12/25 15:09:00;;;;;;;;;5.50;5.00;;;;;;;;5041869;28;61991;-77
2022/12/25 15:11:25;;;;;;;;;5.00;5.00;;;;;;;;5042159;28;61797;-77
2022/12/25 15:13:51;;;;;;;;;5.50;3.50;;;;;;;;5042471;28;61750;-77
2022/12/25 15:16:28;;;;;;;;;6.50;4.50;;;;;;;;5042603;28;61900;-77
2022/12/25 15:18:54;;;;;;;;;6.25;6.00;;;;;;;;5040090;28;63858;-77
2022/12/25 15:21:26;;;;;;;;;3.00;3.00;;;;;;;;5040895;28;61793;-77
2022/12/25 15:23:55;;;;;;;;;7.75;4.00;;;;;;;;5042107;28;62070;-77
2022/12/25 15:26:21;;;;;;;;;8.50;4.75;;;;;;;;5042325;28;61813;-77
2022/12/25 15:28:46;;;;;;;;;7.50;5.00;;;;;;;;5040260;28;63490;-77
2022/12/25 15:31:27;;;;;;;;;7.50;4.00;;;;;;;;5042084;28;61814;-77
2022/12/25 15:33:54;;;;;;;;;5.25;3.75;;;;;;;;5042061;28;61788;-77
2022/12/25 15:36:20;;;;;;;;;5.75;4.75;;;;;;;;5041103;28;61984;-77
2022/12/25 15:38:45;;;;;;;;;4.00;3.00;;;;;;;;5041357;28;62776;-77
2022/12/25 15:44:14;;;;;;;;;8.50;8.00;;;;;;;;5042185;28;62064;-77
2022/12/25 15:46:40;;;;;;;;;5.50;5.50;;;;;;;;5042196;28;62115;-77
2022/12/25 15:49:05;;;;;;;;;13.00;10.25;;;;;;;;5041026;28;61793;-77
2022/12/25 15:51:30;;;;;;;;;8.50;7.00;;;;;;;;5042033;28;62006;-77
2022/12/25 15:53:55;;;;;;;;;6.50;3.50;;;;;;;;5041951;28;62033;-77
2022/12/25 15:56:22;;;;;;;;;8.00;6.25;;;;;;;;5042213;28;61865;-77
2022/12/25 15:58:47;;;;;;;;;5.50;3.75;;;;;;;;5039650;28;64691;-77
2022/12/25 16:01:14;;;;;;;;;3.00;2.75;;;;;;;;5041862;28;61691;-77
2022/12/25 16:03:39;;;;;;;;;7.25;5.50;;;;;;;;5041838;28;61894;-77
2022/12/25 16:06:04;;;;;;;;;8.25;7.00;;;;;;;;5041768;28;61730;-77
2022/12/25 16:08:29;;;;;;;;;4.50;3.75;;;;;;;;5040939;28;61852;-77
2022/12/25 16:10:55;;;;;;;;;5.00;4.50;;;;;;;;5041511;28;61818;-77
2022/12/25 16:13:20;;;;;;;;;5.50;4.50;;;;;;;;5041742;28;61908;-77
2022/12/25 16:15:45;;;;;;;;;11.75;3.75;;;;;;;;5043972;28;62122;-77
2022/12/25 16:18:11;;;;;;;;;7.00;5.00;;;;;;;;5044393;28;62529;-77
2022/12/25 16:20:36;;;;;;;;;6.75;4.25;;;;;;;;5044707;28;61940;-77